Time;durP1;ratioP1;P1;durP2;ratioP2;P2;SDS_P1;SDS_P2;PMS_P1;PMS_P2;Temp;Humidity;BMP_temperature;BMP_pressure;BME280_temperature;BME280_humidity;BME280_pressure;Samples;Min_cycle;Max_cycle;Signal;HPM_P1;HPM_P2
2024/02/04 00:00:20;;;;;;;0.50;0.20;;;;;;;11.34;69.66;101253.56;10400770;28;20052;-60
2024/02/04 00:05:22;;;;;;;0.95;0.28;;;;;;;11.26;70.50;101242.75;10415461;28;20050;-61
2024/02/04 00:10:24;;;;;;;0.20;0.20;;;;;;;11.19;70.48;101242.53;10391604;28;20091;-61
2024/02/04 00:15:26;;;;;;;0.35;0.20;;;;;;;11.15;70.79;101243.84;10415422;28;20077;-61
2024/02/04 00:20:29;;;;;;;0.68;0.20;;;;;;;11.10;70.96;101232.72;10411822;28;20104;-60
2024/02/04 00:25:30;;;;;;;0.20;0.20;;;;;;;11.08;71.08;101232.03;10388837;28;20130;-60
2024/02/04 00:30:32;;;;;;;0.30;0.20;;;;;;;11.08;71.08;101240.13;10407458;28;20049;-60
2024/02/04 00:35:34;;;;;;;0.47;0.10;;;;;;;11.16;71.21;101229.41;10401779;28;20050;-63
2024/02/04 00:40:35;;;;;;;0.50;0.20;;;;;;;11.18;71.23;101216.63;10412638;28;20083;-63
2024/02/04 00:45:39;;;;;;;0.40;0.30;;;;;;;11.20;71.18;101220.00;10404415;28;20710;-63
2024/02/04 00:50:41;;;;;;;0.47;0.20;;;;;;;11.20;71.14;101211.94;10405381;28;20037;-63
2024/02/04 00:55:42;;;;;;;0.17;0.10;;;;;;;11.15;71.19;101216.94;10410662;28;20049;-63
2024/02/04 01:00:43;;;;;;;0.40;0.20;;;;;;;11.12;71.50;101209.19;10414454;28;20045;-62
2024/02/04 01:05:45;;;;;;;0.15;0.15;;;;;;;11.13;71.17;101226.19;10397089;28;20124;-63
2024/02/04 01:10:47;;;;;;;0.30;0.20;;;;;;;11.19;71.25;101226.38;10402907;28;20099;-62
2024/02/04 01:15:48;;;;;;;0.47;0.20;;;;;;;11.21;71.51;101224.38;10410615;28;20432;-63
2024/02/04 01:20:50;;;;;;;0.50;0.20;;;;;;;11.26;71.24;101194.31;10410978;28;20057;-62
2024/02/04 01:25:51;;;;;;;0.38;0.20;;;;;;;11.20;71.32;101205.72;10408885;28;20507;-63
2024/02/04 01:30:53;;;;;;;0.22;0.10;;;;;;;11.21;71.94;101218.16;10404103;28;20049;-64
2024/02/04 01:35:54;;;;;;;0.50;0.15;;;;;;;11.21;71.47;101221.69;10412385;28;20057;-63
2024/02/04 01:40:57;;;;;;;1.38;0.10;;;;;;;11.21;71.54;101231.59;10410498;28;20045;-63
2024/02/04 01:45:59;;;;;;;0.38;0.20;;;;;;;11.27;71.64;101223.72;10408972;28;20473;-61
2024/02/04 01:51:01;;;;;;;0.70;0.20;;;;;;;11.28;71.59;101235.38;10411269;28;20049;-60
2024/02/04 01:56:03;;;;;;;0.10;0.10;;;;;;;11.37;71.53;101236.25;10403101;28;20124;-60
2024/02/04 02:01:05;;;;;;;0.43;0.20;;;;;;;11.36;71.16;101230.03;10403775;28;20556;-60
2024/02/04 02:06:07;;;;;;;1.35;0.10;;;;;;;11.34;71.23;101233.88;10403882;28;20064;-60
2024/02/04 02:11:26;;;;;;;0.30;0.10;;;;;;;11.30;71.32;101225.28;10404576;28;20658;-61
2024/02/04 02:16:31;;;;;;;0.40;0.10;;;;;;;11.24;71.78;101217.84;10410204;28;20052;-60
2024/02/04 02:21:50;;;;;;;0.50;0.20;;;;;;;11.13;72.30;101218.09;10391104;28;20042;-60
2024/02/04 02:26:52;;;;;;;0.32;0.20;;;;;;;11.09;72.26;101213.03;10400047;28;20064;-61
2024/02/04 02:31:54;;;;;;;1.75;0.20;;;;;;;11.03;72.02;101196.69;10407973;28;20049;-60
2024/02/04 02:37:03;;;;;;;0.28;0.20;;;;;;;10.95;72.32;101202.00;10404680;28;20049;-60
2024/02/04 02:42:05;;;;;;;0.32;0.30;;;;;;;10.96;72.59;101192.91;10399606;28;20108;-61
2024/02/04 02:47:07;;;;;;;1.45;0.20;;;;;;;10.89;72.54;101176.59;10410725;28;20061;-60
2024/02/04 02:52:09;;;;;;;1.05;0.20;;;;;;;10.82;73.33;101170.13;10405633;28;20063;-60
2024/02/04 02:57:10;;;;;;;0.90;0.25;;;;;;;10.74;73.55;101164.69;10406455;28;20050;-61
2024/02/04 03:02:13;;;;;;;0.40;0.22;;;;;;;10.64;73.58;101160.28;10407330;28;20065;-61
2024/02/04 03:07:15;;;;;;;1.52;0.38;;;;;;;10.56;74.11;101170.94;10403021;28;20099;-61
2024/02/04 03:12:16;;;;;;;1.65;0.30;;;;;;;10.52;74.60;101153.44;10406502;28;20098;-62
2024/02/04 03:17:21;;;;;;;0.40;0.30;;;;;;;10.49;74.48;101159.97;10404632;28;20049;-62
2024/02/04 03:22:23;;;;;;;0.68;0.50;;;;;;;10.48;74.81;101170.88;10402167;28;20099;-62
2024/02/04 03:27:25;;;;;;;1.70;0.80;;;;;;;10.43;75.07;101155.22;10406747;28;20049;-63
2024/02/04 03:32:29;;;;;;;1.67;0.68;;;;;;;10.42;75.62;101160.75;10409665;28;20073;-62
2024/02/04 03:37:30;;;;;;;2.10;0.50;;;;;;;10.38;75.73;101152.16;10412335;28;20496;-62
2024/02/04 03:42:31;;;;;;;1.10;0.40;;;;;;;10.35;76.01;101146.25;10388675;28;20046;-62
2024/02/04 03:47:33;;;;;;;1.52;0.60;;;;;;;10.34;76.02;101145.41;10415728;28;20124;-63
2024/02/04 03:52:34;;;;;;;1.98;0.60;;;;;;;10.30;76.58;101142.16;10413535;28;20049;-63
2024/02/04 03:57:36;;;;;;;2.35;0.90;;;;;;;10.28;76.87;101135.25;10410002;28;20077;-64
2024/02/04 04:02:38;;;;;;;1.85;1.00;;;;;;;10.23;76.92;101140.22;10407592;28;20053;-64
2024/02/04 04:07:40;;;;;;;1.60;0.82;;;;;;;10.26;76.87;101137.25;10413477;28;20050;-63
2024/02/04 04:12:41;;;;;;;2.03;1.10;;;;;;;10.23;76.95;101146.47;10413675;28;20049;-65
2024/02/04 04:17:43;;;;;;;1.88;0.85;;;;;;;10.30;77.29;101144.03;10409604;28;20072;-67
2024/02/04 04:22:46;;;;;;;3.60;1.23;;;;;;;10.28;77.20;101144.13;10409043;28;20092;-66
2024/02/04 04:27:47;;;;;;;3.72;1.77;;;;;;;10.30;77.44;101154.78;10413216;28;20649;-67
2024/02/04 04:32:49;;;;;;;5.10;1.50;;;;;;;10.35;77.52;101144.41;10416509;28;20045;-67
2024/02/04 04:37:50;;;;;;;4.85;1.52;;;;;;;10.37;77.33;101147.78;10392009;28;20448;-67
2024/02/04 04:42:53;;;;;;;3.42;1.50;;;;;;;10.31;77.75;101137.66;10406899;28;20046;-67
2024/02/04 04:47:54;;;;;;;3.55;1.13;;;;;;;10.30;77.96;101135.97;10405533;28;20130;-67
2024/02/04 04:52:57;;;;;;;2.60;0.90;;;;;;;10.28;78.32;101135.25;10408048;28;20060;-67
2024/02/04 04:57:58;;;;;;;0.70;0.60;;;;;;;10.28;78.05;101151.38;10413318;28;20054;-67
2024/02/04 05:03:00;;;;;;;0.73;0.50;;;;;;;10.31;78.50;101159.16;10408916;28;20060;-66
2024/02/04 05:08:02;;;;;;;1.35;0.60;;;;;;;10.36;78.12;101132.66;10390454;28;20124;-66
2024/02/04 05:13:04;;;;;;;0.93;0.63;;;;;;;10.41;77.82;101135.72;10408615;28;20045;-66
2024/02/04 05:18:05;;;;;;;1.77;0.40;;;;;;;10.48;77.67;101134.09;10411033;28;20049;-66
2024/02/04 05:23:07;;;;;;;0.55;0.28;;;;;;;10.51;77.64;101128.41;10385064;28;20052;-65
2024/02/04 05:28:09;;;;;;;0.50;0.22;;;;;;;10.56;78.20;101129.78;10407452;28;20103;-65
2024/02/04 05:33:14;;;;;;;0.68;0.30;;;;;;;10.61;77.85;101133.69;10405798;28;20068;-65
2024/02/04 05:38:16;;;;;;;2.58;0.30;;;;;;;10.65;77.83;101128.84;10398472;28;20488;-64
2024/02/04 05:43:17;;;;;;;0.60;0.60;;;;;;;10.69;77.78;101130.22;10413273;28;20054;-64
2024/02/04 05:48:19;;;;;;;0.25;0.20;;;;;;;10.64;77.73;101141.47;10410922;28;21515;-64
2024/02/04 05:53:21;;;;;;;1.13;0.20;;;;;;;10.67;78.07;101142.97;10409825;28;20571;-64
2024/02/04 05:58:22;;;;;;;1.88;0.20;;;;;;;10.71;77.67;101147.03;10410135;28;20053;-63
2024/02/04 06:03:24;;;;;;;0.77;0.20;;;;;;;10.72;77.86;101137.97;10400663;28;20057;-63
2024/02/04 06:08:27;;;;;;;0.20;0.20;;;;;;;10.73;77.70;101133.44;10405797;28;20056;-63
2024/02/04 06:13:28;;;;;;;0.82;0.20;;;;;;;10.79;77.12;101128.28;10415204;28;20061;-63
2024/02/04 06:18:29;;;;;;;0.30;0.10;;;;;;;10.83;77.19;101148.47;10403771;28;20063;-63
2024/02/04 06:23:32;;;;;;;0.75;0.20;;;;;;;10.81;77.34;101131.66;10407956;28;20091;-62
2024/02/04 06:28:33;;;;;;;0.85;0.10;;;;;;;10.83;76.87;101129.63;10409724;28;20045;-61
2024/02/04 06:33:35;;;;;;;2.38;0.20;;;;;;;10.83;77.23;101129.63;10406601;28;20087;-61
2024/02/04 06:38:37;;;;;;;2.30;0.10;;;;;;;10.83;76.99;101135.03;10407563;28;20046;-61
2024/02/04 06:43:38;;;;;;;0.25;0.10;;;;;;;10.88;77.06;101113.88;10384721;28;20052;-60
2024/02/04 06:48:40;;;;;;;0.00;0.00;;;;;;;10.88;76.61;101113.00;10403724;28;20049;-61
2024/02/04 06:53:41;;;;;;;0.20;0.00;;;;;;;10.80;77.14;101119.22;10392340;28;20716;-66
2024/02/04 06:58:43;;;;;;;0.20;0.00;;;;;;;10.69;77.32;101108.72;10408115;28;20038;-63
2024/02/04 07:03:44;;;;;;;0.57;0.17;;;;;;;10.68;76.88;101107.88;10409232;28;20045;-67
2024/02/04 07:08:46;;;;;;;0.03;0.03;;;;;;;10.73;76.83;101120.84;10412862;28;20046;-62
2024/02/04 07:13:47;;;;;;;0.25;0.10;;;;;;;10.79;76.56;101130.97;10422823;28;20051;-63
2024/02/04 07:18:49;;;;;;;0.40;0.10;;;;;;;10.78;76.79;101140.03;10411068;28;20041;-64
2024/02/04 07:23:50;;;;;;;0.10;0.10;;;;;;;10.67;77.00;101125.00;10419556;28;20057;-63
2024/02/04 07:28:52;;;;;;;0.20;0.10;;;;;;;10.60;77.17;101134.69;10421309;28;20131;-63
2024/02/04 07:33:53;;;;;;;0.40;0.00;;;;;;;10.54;77.39;101132.63;10411912;28;20055;-62
2024/02/04 07:38:55;;;;;;;0.60;0.13;;;;;;;10.48;78.01;101126.03;10411077;28;20076;-69
2024/02/04 07:43:57;;;;;;;0.10;0.10;;;;;;;10.53;78.02;101149.78;10421732;28;20061;-68
2024/02/04 07:48:59;;;;;;;0.52;0.20;;;;;;;10.58;77.42;101135.84;10399635;28;20052;-68
2024/02/04 07:54:01;;;;;;;0.45;0.10;;;;;;;10.54;77.65;101132.63;10418709;28;20422;-68
2024/02/04 07:59:03;;;;;;;0.10;0.10;;;;;;;10.54;77.81;101116.50;10416932;28;20478;-66
2024/02/04 08:04:08;;;;;;;0.20;0.10;;;;;;;10.58;77.96;101125.94;10409990;28;20152;-67
2024/02/04 08:09:10;;;;;;;0.65;0.10;;;;;;;10.66;77.33;101125.16;10414541;28;20656;-68
2024/02/04 08:14:11;;;;;;;0.20;0.10;;;;;;;10.76;77.31;101131.25;10413975;28;20063;-68
2024/02/04 08:19:13;;;;;;;1.77;0.10;;;;;;;10.77;77.46;101124.91;10408965;28;20068;-69
2024/02/04 08:24:15;;;;;;;0.70;0.10;;;;;;;10.71;77.31;101128.22;10413657;28;20057;-67
2024/02/04 08:29:17;;;;;;;0.10;0.10;;;;;;;10.74;77.46;101105.53;10409906;28;20050;-65
2024/02/04 08:34:20;;;;;;;0.65;0.10;;;;;;;10.93;77.12;101110.69;10412509;28;20233;-68
2024/02/04 08:39:22;;;;;;;1.17;0.13;;;;;;;11.01;77.54;101115.28;10393090;28;20053;-62
2024/02/04 08:44:24;;;;;;;1.17;0.20;;;;;;;11.01;77.68;101124.19;10412350;28;20053;-63
2024/02/04 08:49:39;;;;;;;0.70;0.10;;;;;;;11.07;77.19;101104.72;10404542;28;20053;-66
2024/02/04 08:54:40;;;;;;;0.45;0.20;;;;;;;11.19;76.83;101107.13;10412382;28;20119;-66
2024/02/04 08:59:42;;;;;;;2.55;0.10;;;;;;;11.22;77.26;101106.81;10413103;28;20155;-70
2024/02/04 09:04:43;;;;;;;0.40;0.20;;;;;;;11.30;76.80;101113.06;10443383;28;20067;-66
2024/02/04 09:09:45;;;;;;;0.28;0.10;;;;;;;11.34;76.58;101113.59;10482732;22;20078;-87
2024/02/04 09:14:46;;;;;;;0.63;0.15;;;;;;;11.37;76.69;101121.34;10475791;28;20136;-89
2024/02/04 09:19:49;;;;;;;0.30;0.13;;;;;;;11.24;76.82;101112.88;10459543;28;20055;-87
2024/02/04 09:24:51;;;;;;;0.10;0.10;;;;;;;11.19;76.92;101116.03;10454021;28;20053;-87
2024/02/04 09:29:55;;;;;;;1.55;0.20;;;;;;;11.10;77.23;101117.03;10460964;28;20544;-89
2024/02/04 09:34:58;;;;;;;0.30;0.20;;;;;;;11.17;76.89;101101.06;10454064;28;20052;-87
2024/02/04 09:40:00;;;;;;;0.10;0.10;;;;;;;11.15;77.10;101098.53;10470173;28;20064;-87
2024/02/04 09:45:02;;;;;;;1.05;0.40;;;;;;;11.25;76.87;101096.56;10469473;28;20632;-88
2024/02/04 09:50:04;;;;;;;2.08;0.20;;;;;;;11.26;77.07;101084.78;10468303;28;20044;-88
2024/02/04 09:55:11;;;;;;;0.90;0.20;;;;;;;11.31;76.99;101095.06;10437219;28;20514;-88
2024/02/04 10:00:13;;;;;;;1.30;0.13;;;;;;;11.36;77.12;101103.50;10448522;28;20052;-88
2024/02/04 10:05:15;;;;;;;0.38;0.17;;;;;;;11.44;77.02;101090.06;10473176;28;20041;-89
2024/02/04 10:10:18;;;;;;;0.50;0.10;;;;;;;11.49;76.81;101085.06;10469426;28;20049;-89
2024/02/04 10:15:20;;;;;;;1.65;0.20;;;;;;;11.38;77.12;101101.50;10447120;28;20064;-89
2024/02/04 10:20:24;;;;;;;0.20;0.17;;;;;;;11.50;77.20;101092.09;10464424;28;20102;-89
2024/02/04 10:25:27;;;;;;;0.65;0.10;;;;;;;11.62;76.58;101105.28;10481604;28;20061;-90
2024/02/04 10:30:31;;;;;;;0.65;0.20;;;;;;;11.74;76.53;101095.03;10457971;28;20072;-90
2024/02/04 10:35:32;;;;;;;0.30;0.15;;;;;;;11.74;76.32;101090.47;10437866;28;20044;-90
2024/02/04 10:40:34;;;;;;;0.03;0.00;;;;;;;11.63;76.38;101082.72;10457466;28;20053;-88
2024/02/04 10:45:38;;;;;;;0.10;0.03;;;;;;;11.59;76.38;101087.59;10468499;28;20135;-90
2024/02/04 10:50:45;;;;;;;1.33;0.10;;;;;;;11.64;76.60;101074.47;10464606;28;20056;-90
2024/02/04 10:55:49;;;;;;;0.10;0.10;;;;;;;11.67;76.08;101068.78;10458259;28;20045;-90
2024/02/04 11:00:51;;;;;;;0.20;0.20;;;;;;;11.59;76.37;101067.88;10459055;28;20052;-90
2024/02/04 11:05:54;;;;;;;0.10;0.10;;;;;;;11.30;76.96;101077.25;10473782;28;20532;-90
2024/02/04 11:10:55;;;;;;;0.10;0.10;;;;;;;11.12;77.15;101047.75;10464700;28;20079;-89
2024/02/04 11:16:04;;;;;;;0.55;0.10;;;;;;;11.00;77.68;101060.66;10472270;28;20049;-89
2024/02/04 11:21:18;;;;;;;0.85;0.13;;;;;;;11.14;77.86;101053.81;10475989;28;20068;-89
2024/02/04 11:26:20;;;;;;;0.77;0.13;;;;;;;11.22;78.03;101039.53;10474799;28;20434;-88
2024/02/04 11:31:22;;;;;;;2.03;0.20;;;;;;;11.15;78.20;101044.72;10457978;28;20045;-89
2024/02/04 11:36:25;;;;;;;0.77;0.35;;;;;;;11.20;78.07;101041.56;10476536;28;20680;-88
2024/02/04 11:41:28;;;;;;;0.17;0.10;;;;;;;11.23;78.35;101038.53;10474218;28;20090;-88
2024/02/04 11:46:33;;;;;;;0.35;0.22;;;;;;;11.28;78.53;101030.81;10468433;28;20061;-88
2024/02/04 11:51:35;;;;;;;1.40;0.13;;;;;;;11.33;78.56;101025.75;10482686;28;20037;-89
2024/02/04 11:56:37;;;;;;;0.35;0.20;;;;;;;11.54;78.22;101024.47;10473621;28;20084;-89
2024/02/04 12:01:39;;;;;;;0.68;0.20;;;;;;;11.60;78.14;101021.94;10461591;28;20054;-89
2024/02/04 12:06:42;;;;;;;0.60;0.20;;;;;;;11.60;78.15;101013.88;10451680;28;20055;-90
2024/02/04 12:11:44;;;;;;;0.30;0.20;;;;;;;11.58;78.39;101021.28;10451967;28;20041;-88
2024/02/04 12:16:45;;;;;;;0.20;0.10;;;;;;;11.54;78.60;101014.53;10470710;28;20128;-88
2024/02/04 12:21:47;;;;;;;2.15;0.20;;;;;;;11.58;78.08;101020.44;10473927;28;20067;-89
2024/02/04 12:26:49;;;;;;;0.73;0.25;;;;;;;11.61;78.43;101009.31;10459648;28;20139;-88
2024/02/04 12:31:58;;;;;;;0.47;0.20;;;;;;;11.49;79.02;101006.97;10448449;28;20126;-88
2024/02/04 12:37:01;;;;;;;0.85;0.30;;;;;;;11.49;78.89;100995.34;10443135;28;20108;-87
2024/02/04 12:42:03;;;;;;;1.55;0.15;;;;;;;11.55;78.80;100980.38;10472366;28;20673;-88
2024/02/04 12:47:05;;;;;;;0.20;0.20;;;;;;;11.56;78.65;100984.75;10454660;28;20045;-88
2024/02/04 12:52:07;;;;;;;0.50;0.30;;;;;;;11.60;78.67;100984.25;10452815;28;20103;-89
2024/02/04 12:57:13;;;;;;;2.05;0.30;;;;;;;11.52;79.02;100971.63;10468807;28;20055;-88
2024/02/04 13:02:14;;;;;;;0.70;0.30;;;;;;;11.62;78.36;100984.94;10454995;28;20079;-87
2024/02/04 13:07:18;;;;;;;1.38;0.20;;;;;;;11.67;78.34;100976.34;10467684;28;20048;-86
2024/02/04 13:12:20;;;;;;;0.30;0.20;;;;;;;11.63;78.56;100967.78;10466582;28;20053;-86
2024/02/04 13:17:22;;;;;;;0.68;0.30;;;;;;;11.77;78.59;100970.78;10455123;28;20053;-86
2024/02/04 13:22:23;;;;;;;2.55;0.30;;;;;;;11.80;78.65;100971.28;10452831;28;20075;-87
2024/02/04 13:27:25;;;;;;;1.33;0.20;;;;;;;11.85;78.58;100954.66;10469169;28;20098;-87
2024/02/04 13:32:27;;;;;;;0.68;0.25;;;;;;;11.96;78.28;100957.00;10470086;28;20446;-88
2024/02/04 13:37:29;;;;;;;0.30;0.10;;;;;;;11.96;78.55;100964.25;10482697;28;20045;-87
2024/02/04 13:42:35;;;;;;;0.00;0.00;;;;;;;12.02;78.11;100952.78;10480580;28;20052;-87
2024/02/04 13:47:37;;;;;;;1.03;0.17;;;;;;;12.07;78.33;100967.44;10466551;28;20079;-87
2024/02/04 13:52:40;;;;;;;1.08;0.00;;;;;;;12.12;77.66;100976.88;10483367;28;20099;-87
2024/02/04 13:57:42;;;;;;;0.00;0.00;;;;;;;12.18;77.29;100968.09;10480115;28;20566;-88
2024/02/04 14:02:44;;;;;;;0.00;0.00;;;;;;;12.23;77.03;100971.97;10476675;28;20055;-87
2024/02/04 14:07:46;;;;;;;0.20;0.10;;;;;;;12.26;76.96;100959.97;10463440;28;20044;-87
2024/02/04 14:12:48;;;;;;;0.10;0.00;;;;;;;12.28;76.42;100966.91;10459777;28;20052;-86
2024/02/04 14:17:49;;;;;;;0.10;0.00;;;;;;;12.32;76.18;100953.06;10458346;28;20130;-88
2024/02/04 14:22:52;;;;;;;0.75;0.20;;;;;;;12.45;75.76;100964.16;10451773;28;20052;-88
2024/02/04 14:27:54;;;;;;;0.73;0.30;;;;;;;12.46;75.43;100968.53;10464455;28;20131;-89
2024/02/04 14:32:57;;;;;;;0.57;0.20;;;;;;;12.41;75.77;100963.66;10470456;28;20049;-89
2024/02/04 14:37:59;;;;;;;0.70;0.10;;;;;;;12.30;75.73;100974.81;10457600;28;20045;-88
2024/02/04 14:43:02;;;;;;;1.02;0.20;;;;;;;12.40;75.70;100967.38;10455115;28;20061;-88
2024/02/04 14:48:04;;;;;;;0.93;0.30;;;;;;;12.40;75.54;100974.63;10475014;28;20079;-88
2024/02/04 14:53:09;;;;;;;1.00;0.20;;;;;;;12.40;75.42;100961.13;10468278;28;20053;-88
2024/02/04 14:58:10;;;;;;;0.60;0.20;;;;;;;12.44;75.21;100957.06;10443604;28;20086;-89
2024/02/04 15:03:12;;;;;;;0.28;0.10;;;;;;;12.53;74.95;100966.00;10458011;28;20060;-89
2024/02/04 15:08:13;;;;;;;0.60;0.10;;;;;;;12.52;74.99;100964.31;10450411;28;20048;-88
2024/02/04 15:13:15;;;;;;;0.28;0.10;;;;;;;12.51;75.09;100971.56;10447640;28;20075;-88
2024/02/04 15:18:18;;;;;;;0.20;0.10;;;;;;;12.43;74.89;100987.75;10465950;28;20049;-89
2024/02/04 15:23:20;;;;;;;0.00;0.00;;;;;;;12.41;74.89;100984.41;10455830;28;20135;-89
2024/02/04 15:28:24;;;;;;;0.10;0.00;;;;;;;12.34;74.82;100972.59;10482767;28;20052;-89
2024/02/04 15:33:28;;;;;;;0.08;0.00;;;;;;;12.32;74.97;100972.78;10479659;28;20052;-89
2024/02/04 15:38:30;;;;;;;0.10;0.10;;;;;;;12.26;75.25;100973.47;10456128;28;20040;-90
2024/02/04 15:43:32;;;;;;;0.05;0.00;;;;;;;12.24;75.03;100968.28;10459006;28;20072;-90
2024/02/04 15:48:38;;;;;;;1.20;0.08;;;;;;;12.28;74.77;100939.09;10483145;28;20056;-89
2024/02/04 15:53:40;;;;;;;0.98;0.00;;;;;;;12.28;74.51;100950.75;10465859;28;20068;-89
2024/02/04 15:58:42;;;;;;;1.75;0.00;;;;;;;12.30;74.60;100939.75;10469232;28;20055;-90
2024/02/04 16:03:44;;;;;;;0.10;0.00;;;;;;;12.36;74.58;100946.31;10483791;28;20523;-90
2024/02/04 16:08:48;;;;;;;0.10;0.00;;;;;;;12.38;74.56;100945.16;10470648;28;20442;-92
2024/02/04 16:13:52;;;;;;;0.08;0.00;;;;;;;12.41;74.16;100942.09;10457394;23;20036;-66
2024/02/04 16:18:53;;;;;;;0.40;0.10;;;;;;;12.47;73.76;100962.97;10468361;28;20372;-67
2024/02/04 16:23:55;;;;;;;0.40;0.00;;;;;;;12.49;74.07;100962.81;10462085;28;20202;-66
2024/02/04 16:28:56;;;;;;;0.38;0.00;;;;;;;12.44;74.06;100967.84;10442512;28;20057;-63
2024/02/04 16:33:58;;;;;;;0.43;0.10;;;;;;;12.41;74.07;100960.97;10462119;28;20052;-60
2024/02/04 16:39:05;;;;;;;0.00;0.00;;;;;;;12.43;74.05;100971.59;10446758;28;20045;-63
2024/02/04 16:44:07;;;;;;;0.50;0.10;;;;;;;12.35;74.06;100958.97;10450413;28;20041;-61
2024/02/04 16:49:12;;;;;;;0.30;0.00;;;;;;;12.25;74.50;100955.63;10442867;28;20061;-60
2024/02/04 16:54:24;;;;;;;0.10;0.10;;;;;;;12.26;74.09;100960.84;10462913;28;20191;-60
2024/02/04 16:59:28;;;;;;;0.52;0.10;;;;;;;12.22;74.46;100959.50;10463853;28;20051;-60
2024/02/04 17:04:31;;;;;;;0.00;0.00;;;;;;;12.26;74.01;100959.97;10463943;28;20045;-61
2024/02/04 17:09:33;;;;;;;0.30;0.10;;;;;;;12.30;74.50;100954.09;10439760;28;20289;-61
2024/02/04 17:14:35;;;;;;;0.40;0.10;;;;;;;12.38;73.97;100946.97;10416849;28;20045;-61
2024/02/04 17:20:06;;;;;;;0.43;0.10;;;;;;;12.46;74.07;100953.22;10413586;28;20045;-61
2024/02/04 17:25:16;;;;;;;0.32;0.10;;;;;;;12.56;73.52;100950.31;10421813;28;20127;-61
2024/02/04 17:30:20;;;;;;;0.32;0.13;;;;;;;12.60;73.58;100931.91;10419178;28;20043;-61
2024/02/04 17:35:23;;;;;;;0.50;0.32;;;;;;;12.62;73.14;100943.38;10415974;28;20409;-61
2024/02/04 17:40:25;;;;;;;0.65;0.20;;;;;;;12.59;73.19;100930.25;10420811;28;20144;-61
2024/02/04 17:45:27;;;;;;;0.25;0.20;;;;;;;12.61;73.12;100933.59;10421419;28;20049;-61
2024/02/04 17:50:28;;;;;;;0.75;0.10;;;;;;;12.57;73.05;100921.47;10423004;28;20049;-61
2024/02/04 17:55:30;;;;;;;0.40;0.40;;;;;;;12.61;72.83;100929.03;10414274;28;20057;-60
2024/02/04 18:00:32;;;;;;;0.30;0.10;;;;;;;12.45;73.24;100905.66;10415770;28;20049;-60
2024/02/04 18:05:37;;;;;;;0.45;0.20;;;;;;;12.46;73.05;100912.75;10403768;28;20057;-60
2024/02/04 18:10:39;;;;;;;0.45;0.25;;;;;;;12.46;73.03;100923.53;10418854;28;20460;-62
2024/02/04 18:15:41;;;;;;;0.20;0.10;;;;;;;12.45;73.31;100907.53;10425145;28;20104;-62
2024/02/04 18:20:43;;;;;;;0.10;0.10;;;;;;;12.47;72.95;100916.28;10428512;28;20067;-61
2024/02/04 18:25:45;;;;;;;0.30;0.20;;;;;;;12.44;73.00;100914.78;10430050;28;20049;-62
2024/02/04 18:30:49;;;;;;;0.43;0.20;;;;;;;12.47;73.31;100906.34;10448000;28;20124;-62
2024/02/04 18:35:50;;;;;;;0.50;0.20;;;;;;;12.49;72.64;100903.47;10433659;28;20048;-62
2024/02/04 18:40:52;;;;;;;0.20;0.15;;;;;;;12.46;72.67;100901.97;10422706;28;20491;-61
2024/02/04 18:45:55;;;;;;;0.17;0.10;;;;;;;12.49;72.77;100917.78;10420168;28;20526;-60
2024/02/04 18:50:56;;;;;;;0.15;0.10;;;;;;;12.47;72.54;100892.84;10422070;28;20428;-62
2024/02/04 18:56:00;;;;;;;0.10;0.10;;;;;;;12.44;72.56;100895.06;10419915;28;20412;-61
2024/02/04 19:01:02;;;;;;;1.00;0.40;;;;;;;12.20;73.07;100893.28;10430555;28;20657;-61
2024/02/04 19:06:08;;;;;;;0.57;0.10;;;;;;;12.02;73.91;100893.50;10430330;28;20041;-61
2024/02/04 19:11:10;;;;;;;0.20;0.20;;;;;;;12.05;73.53;100883.25;10429557;28;20040;-61
2024/02/04 19:16:21;;;;;;;1.50;0.20;;;;;;;12.09;73.71;100883.75;10428121;28;20045;-61
2024/02/04 19:21:22;;;;;;;1.40;0.15;;;;;;;12.15;73.39;100879.50;10429959;28;20060;-61
2024/02/04 19:26:28;;;;;;;0.70;0.15;;;;;;;12.20;73.15;100875.25;10429975;28;20057;-60
2024/02/04 19:31:29;;;;;;;0.85;0.13;;;;;;;12.22;73.32;100877.78;10431139;28;20045;-61
2024/02/04 19:36:30;;;;;;;0.28;0.10;;;;;;;12.28;73.14;100872.56;10416971;28;20046;-61
2024/02/04 19:41:32;;;;;;;0.20;0.10;;;;;;;12.33;72.76;100882.81;10430769;28;20563;-60
2024/02/04 19:46:33;;;;;;;1.00;0.25;;;;;;;12.39;72.48;100868.63;10427133;28;20397;-60
2024/02/04 19:51:35;;;;;;;1.77;0.13;;;;;;;12.45;72.31;100884.09;10430719;28;20060;-60
2024/02/04 19:56:36;;;;;;;0.10;0.10;;;;;;;12.46;72.34;100872.31;10424993;28;20049;-60
2024/02/04 20:01:38;;;;;;;1.15;0.20;;;;;;;12.44;71.87;100877.03;10408672;28;20041;-60
2024/02/04 20:06:40;;;;;;;0.35;0.30;;;;;;;12.52;71.56;100878.00;10427071;28;20087;-60
2024/02/04 20:11:41;;;;;;;0.77;0.17;;;;;;;12.54;71.83;100886.75;10422901;28;20053;-61
2024/02/04 20:16:43;;;;;;;0.45;0.10;;;;;;;12.54;71.70;100889.44;10425887;28;20054;-61
2024/02/04 20:21:44;;;;;;;0.20;0.20;;;;;;;12.38;71.86;100893.06;10427136;28;20053;-61
2024/02/04 20:26:46;;;;;;;0.30;0.10;;;;;;;12.32;72.04;100889.19;10425945;28;20049;-60
2024/02/04 20:31:49;;;;;;;0.75;0.10;;;;;;;12.25;72.17;100896.31;10412670;28;20042;-61
2024/02/04 20:36:51;;;;;;;0.00;0.00;;;;;;;12.23;71.88;100892.97;10426278;28;20055;-62
2024/02/04 20:41:54;;;;;;;0.35;0.10;;;;;;;12.26;71.74;100900.69;10427333;28;20095;-63
2024/02/04 20:46:55;;;;;;;0.15;0.10;;;;;;;12.33;71.25;100900.84;10425752;28;20053;-63
2024/02/04 20:51:57;;;;;;;0.10;0.10;;;;;;;12.38;70.79;100909.25;10425432;28;20443;-61
2024/02/04 20:56:58;;;;;;;0.15;0.10;;;;;;;12.40;70.55;100918.84;10427324;28;20569;-61
2024/02/04 21:02:00;;;;;;;0.10;0.05;;;;;;;12.51;70.49;100928.41;10428295;28;20470;-61
2024/02/04 21:07:01;;;;;;;0.38;0.10;;;;;;;12.52;70.23;100932.81;10426910;28;20045;-62
2024/02/04 21:12:03;;;;;;;0.20;0.10;;;;;;;12.59;70.21;100943.72;10403953;28;20516;-61
2024/02/04 21:17:09;;;;;;;0.10;0.10;;;;;;;12.62;70.23;100946.91;10426933;28;20078;-61
2024/02/04 21:22:10;;;;;;;0.30;0.10;;;;;;;12.60;70.23;100929.19;10422729;28;20049;-61
2024/02/04 21:27:12;;;;;;;0.10;0.10;;;;;;;12.57;70.31;100932.28;10427642;28;20442;-61
2024/02/04 21:32:15;;;;;;;0.13;0.00;;;;;;;12.59;69.93;100933.75;10405460;28;20399;-61
2024/02/04 21:37:16;;;;;;;0.57;0.05;;;;;;;12.59;69.85;100935.63;10427155;28;20096;-62
2024/02/04 21:42:18;;;;;;;0.10;0.10;;;;;;;12.56;69.69;100930.56;10424472;28;20053;-61
2024/02/04 21:47:21;;;;;;;0.05;0.03;;;;;;;12.55;69.45;100921.66;10417070;28;20049;-62
2024/02/04 21:52:23;;;;;;;0.00;0.00;;;;;;;12.50;69.90;100918.66;10421229;28;20045;-62
2024/02/04 21:57:24;;;;;;;0.32;0.00;;;;;;;12.56;69.50;100911.69;10420346;28;20148;-62
2024/02/04 22:02:27;;;;;;;0.00;0.00;;;;;;;12.55;69.52;100907.34;10424438;28;20111;-62
2024/02/04 22:07:28;;;;;;;0.10;0.10;;;;;;;12.52;69.68;100892.34;10400369;28;20064;-61
2024/02/04 22:12:29;;;;;;;0.10;0.10;;;;;;;12.50;69.90;100879.03;10419422;28;20053;-61
2024/02/04 22:17:31;;;;;;;0.10;0.03;;;;;;;12.54;69.86;100879.53;10423371;28;20049;-61
2024/02/04 22:22:32;;;;;;;0.40;0.10;;;;;;;12.50;69.77;100878.22;10419726;28;20560;-61
2024/02/04 22:27:34;;;;;;;0.20;0.00;;;;;;;12.49;69.78;100874.66;10420308;28;20048;-61
2024/02/04 22:32:36;;;;;;;0.35;0.15;;;;;;;12.50;69.80;100875.50;10409257;28;20049;-61
2024/02/04 22:37:38;;;;;;;0.20;0.10;;;;;;;12.45;69.63;100872.47;10426741;28;20049;-61
2024/02/04 22:42:39;;;;;;;0.20;0.10;;;;;;;12.39;69.98;100883.97;10413610;28;20839;-61
2024/02/04 22:47:41;;;;;;;0.10;0.00;;;;;;;12.36;70.23;100879.78;10418586;28;20552;-61
2024/02/04 22:52:43;;;;;;;0.13;0.10;;;;;;;12.35;70.07;100888.88;10422758;28;20137;-60
2024/02/04 22:57:44;;;;;;;0.20;0.10;;;;;;;12.28;70.00;100888.72;10420415;28;20041;-61
2024/02/04 23:02:46;;;;;;;0.10;0.00;;;;;;;12.20;70.44;100875.25;10394501;28;20041;-60
2024/02/04 23:07:47;;;;;;;0.17;0.10;;;;;;;12.14;70.46;100883.22;10420755;28;20057;-60